CFX3 weather

Doig Airport
Doig, Alberta, Canada

Public forecast

Using degrees Celsius for public forecast. Weather courtesy of forecast.io.

Closest aviation weather report (METAR) to Doig Airport

Closest report is Fort St John Airport, 58.8 nm (109.0 km) SW. Retrieved 2019/10/13 21:00 UTC (10 minutes ago):

CYXJ 132100Z VRB04KT 60SM FEW110 FEW150 SCT220 05/M03 A2988 RMK AC1AC1CI2 SLP148

Closest aviation forecast (TAF) to Doig Airport

Closest forecast is Fort St John Airport, 58.8 nm (109.0 km) SW. Retrieved 2019/10/13 19:54 UTC (1 hour ago):

TAF CYXJ 131851Z 1319/1407 VRB03KT P6SM SCT140 FM140200 33008KT P6SM BKN050 RMK NXT FCST BY 140100Z